createdAt,value
2018-09-13T00:00:40.948Z,101688.41
2018-09-13T00:03:11.036Z,101693.10
2018-09-13T00:05:40.488Z,101696.84
2018-09-13T00:08:09.567Z,101690.39
2018-09-13T00:10:38.600Z,101689.05
2018-09-13T00:13:08.019Z,101693.62
2018-09-13T00:15:38.102Z,101686.55
2018-09-13T00:18:08.735Z,101685.42
2018-09-13T00:20:38.464Z,101677.72
2018-09-13T00:23:09.211Z,101679.48
2018-09-13T00:25:38.460Z,101683.53
2018-09-13T00:28:08.150Z,101688.22
2018-09-13T00:30:37.095Z,101691.24
2018-09-13T00:33:07.088Z,101690.09
2018-09-13T00:35:37.045Z,101694.79
2018-09-13T00:38:06.071Z,101700.92
2018-09-13T00:40:35.781Z,101712.45
2018-09-13T00:43:04.780Z,101705.81
2018-09-13T00:45:33.601Z,101695.72
2018-09-13T00:48:02.624Z,101696.36
2018-09-13T00:50:32.298Z,101692.42
2018-09-13T00:53:02.116Z,101692.51
2018-09-13T00:55:32.045Z,101697.28
2018-09-13T00:58:01.826Z,101695.61
2018-09-13T01:00:31.738Z,101696.97
2018-09-13T01:03:01.966Z,101695.22
2018-09-13T01:05:32.035Z,101698.55
2018-09-13T01:08:03.130Z,101704.99
2018-09-13T01:10:33.050Z,101707.58
2018-09-13T01:13:03.148Z,101704.02
2018-09-13T01:15:32.799Z,101700.42
2018-09-13T01:18:02.121Z,101703.84
2018-09-13T01:20:31.815Z,101699.84
2018-09-13T01:23:01.202Z,101706.92
2018-09-13T01:25:31.619Z,101708.98
2018-09-13T01:28:00.901Z,101706.71
2018-09-13T01:30:30.140Z,101705.77
2018-09-13T01:32:59.109Z,101705.77
2018-09-13T01:35:28.901Z,101695.90
2018-09-13T01:37:59.097Z,101696.10
2018-09-13T01:40:29.390Z,101701.62
2018-09-13T01:42:58.856Z,101705.35
2018-09-13T01:45:28.814Z,101707.61
2018-09-13T01:47:58.000Z,101719.97
2018-09-13T01:50:27.231Z,101718.94
2018-09-13T01:52:57.322Z,101715.52
2018-09-13T01:55:28.008Z,101706.58
2018-09-13T01:57:57.452Z,101710.44
2018-09-13T02:00:27.708Z,101709.60
2018-09-13T02:02:57.644Z,101710.63
2018-09-13T02:05:28.027Z,101704.72
2018-09-13T02:07:57.863Z,101713.86
2018-09-13T02:10:27.066Z,101712.82
2018-09-13T02:12:57.277Z,101709.17
2018-09-13T02:15:28.060Z,101708.65
2018-09-13T02:17:57.544Z,101714.48
2018-09-13T02:20:27.221Z,101714.36
2018-09-13T02:22:56.390Z,101718.09
2018-09-13T02:25:25.607Z,101717.06
2018-09-13T02:27:54.683Z,101713.33
2018-09-13T02:30:23.628Z,101711.02
2018-09-13T02:32:52.408Z,101705.41
2018-09-13T02:35:22.101Z,101696.79
2018-09-13T02:37:51.064Z,101694.73
2018-09-13T02:40:20.886Z,101686.70
2018-09-13T02:42:50.569Z,101684.11
2018-09-13T02:45:19.626Z,101684.11
2018-09-13T02:47:48.824Z,101681.92
2018-09-13T02:50:18.125Z,101685.66
2018-09-13T02:52:48.209Z,101698.97
2018-09-13T02:55:17.698Z,101701.55
2018-09-13T02:57:47.048Z,101698.13
2018-09-13T03:00:16.358Z,101700.12
2018-09-13T03:02:46.176Z,101706.11
2018-09-13T03:05:15.878Z,101707.56
2018-09-13T03:07:45.763Z,101703.53
2018-09-13T03:10:16.108Z,101701.42
2018-09-13T03:12:45.137Z,101703.84
2018-09-13T03:15:15.066Z,101703.61
2018-09-13T03:17:44.622Z,101702.06
2018-09-13T03:20:14.241Z,101698.39
2018-09-13T03:22:43.188Z,101696.83
2018-09-13T03:25:12.248Z,101695.48
2018-09-13T03:27:42.228Z,101683.01
2018-09-13T03:30:12.285Z,101690.09
2018-09-13T03:32:42.246Z,101695.80
2018-09-13T03:35:12.052Z,101689.22
2018-09-13T03:37:42.331Z,101684.95
2018-09-13T03:40:11.346Z,101677.08
2018-09-13T03:42:40.653Z,101669.69
2018-09-13T03:45:10.211Z,101674.48
2018-09-13T03:47:39.638Z,101673.02
2018-09-13T03:50:09.037Z,101668.24
2018-09-13T03:52:37.995Z,101674.66
2018-09-13T03:55:07.781Z,101675.76
2018-09-13T03:57:38.472Z,101666.88
2018-09-13T04:00:08.348Z,101667.17
2018-09-13T04:02:38.512Z,101672.66
2018-09-13T04:05:07.917Z,101674.95
2018-09-13T04:07:38.038Z,101674.95
2018-09-13T04:10:07.214Z,101675.14
2018-09-13T04:12:37.165Z,101672.24
2018-09-13T04:15:07.190Z,101673.05
2018-09-13T04:17:36.598Z,101672.22
2018-09-13T04:20:06.315Z,101672.63
2018-09-13T04:22:36.500Z,101674.81
2018-09-13T04:25:07.252Z,101679.86
2018-09-13T04:27:36.555Z,101683.08
2018-09-13T04:30:06.070Z,101675.27
2018-09-13T04:32:35.733Z,101680.98
2018-09-13T04:35:05.258Z,101680.34
2018-09-13T04:37:35.503Z,101677.65
2018-09-13T04:40:04.712Z,101679.12
2018-09-13T04:42:34.849Z,101685.42
2018-09-13T04:45:04.170Z,101685.42
2018-09-13T04:47:33.205Z,101687.73
2018-09-13T04:50:03.758Z,101684.49
2018-09-13T04:52:33.448Z,101675.23
2018-09-13T04:55:02.583Z,101676.27
2018-09-13T04:57:32.485Z,101681.21
2018-09-13T05:00:02.571Z,101683.72
2018-09-13T05:02:31.857Z,101684.13
2018-09-13T05:05:01.273Z,101677.07
2018-09-13T05:07:31.580Z,101673.67
2018-09-13T05:10:01.218Z,101679.44
2018-09-13T05:12:30.300Z,101677.55
2018-09-13T05:15:00.756Z,101677.87
2018-09-13T05:17:30.303Z,101680.44
2018-09-13T05:19:59.286Z,101691.03
2018-09-13T05:22:28.318Z,101693.63
2018-09-13T05:24:57.925Z,101690.33
2018-09-13T05:27:27.290Z,101696.23
2018-09-13T05:29:56.558Z,101698.41
2018-09-13T05:32:27.811Z,101696.14
2018-09-13T05:34:57.796Z,101694.98
2018-09-13T05:37:27.387Z,101690.55
2018-09-13T05:39:57.798Z,101690.65
2018-09-13T05:42:27.088Z,101687.53
2018-09-13T05:44:56.153Z,101680.09
2018-09-13T05:47:25.389Z,101673.18
2018-09-13T05:49:54.560Z,101668.27
2018-09-13T05:52:24.930Z,101673.42
2018-09-13T05:54:53.751Z,101671.44
2018-09-13T05:57:22.752Z,101660.84
2018-09-13T05:59:51.672Z,101674.77
2018-09-13T06:02:20.451Z,101687.80
2018-09-13T06:04:49.846Z,101692.22
2018-09-13T06:07:19.108Z,101687.67
2018-09-13T06:09:48.115Z,101701.55
2018-09-13T06:12:17.492Z,101705.92
2018-09-13T06:14:47.840Z,101705.70
2018-09-13T06:17:17.308Z,101720.66
2018-09-13T06:19:46.828Z,101728.28
2018-09-13T06:22:15.921Z,101716.66
2018-09-13T06:24:46.186Z,101705.82
2018-09-13T06:27:15.855Z,101689.74
2018-09-13T06:29:44.839Z,101691.92
2018-09-13T06:32:14.109Z,101690.54
2018-09-13T06:34:43.483Z,101688.16
2018-09-13T06:37:13.734Z,101680.53
2018-09-13T06:39:42.930Z,101685.31
2018-09-13T06:42:12.063Z,101693.47
2018-09-13T06:44:41.749Z,101708.94
2018-09-13T06:47:11.903Z,101721.02
2018-09-13T06:49:42.023Z,101730.59
2018-09-13T06:52:11.184Z,101728.95
2018-09-13T06:54:40.777Z,101725.20
2018-09-13T06:57:11.488Z,101720.77
2018-09-13T06:59:41.921Z,101727.75
2018-09-13T07:02:12.408Z,101727.36
2018-09-13T07:04:42.402Z,101735.33
2018-09-13T07:07:11.693Z,101733.30
2018-09-13T07:09:41.960Z,101721.09
2018-09-13T07:12:11.087Z,101723.09
2018-09-13T07:14:40.290Z,101724.98
2018-09-13T07:17:10.347Z,101722.13
2018-09-13T07:19:40.686Z,101736.31
2018-09-13T07:22:10.259Z,101736.78
2018-09-13T07:24:40.223Z,101728.37
2018-09-13T07:27:09.992Z,101728.65
2018-09-13T07:29:39.626Z,101732.38
2018-09-13T07:32:09.336Z,101729.25
2018-09-13T07:34:38.947Z,101719.81
2018-09-13T07:37:08.964Z,101729.31
2018-09-13T07:39:38.060Z,101741.39
2018-09-13T07:42:07.935Z,101738.52
2018-09-13T07:44:37.692Z,101729.39
2018-09-13T07:47:08.160Z,101733.12
2018-09-13T07:49:38.188Z,101730.28
2018-09-13T07:52:08.341Z,101732.61
2018-09-13T07:54:38.460Z,101725.20
2018-09-13T07:57:08.987Z,101728.60
2018-09-13T07:59:38.502Z,101739.89
2018-09-13T08:02:07.716Z,101746.31
2018-09-13T08:04:37.296Z,101741.23
2018-09-13T08:07:07.651Z,101749.70
2018-09-13T08:09:37.439Z,101747.00
2018-09-13T08:12:06.700Z,101745.61
2018-09-13T08:14:37.596Z,101737.58
2018-09-13T08:17:07.976Z,101725.49
2018-09-13T08:19:38.000Z,101724.94
2018-09-13T08:22:07.426Z,101719.17
2018-09-13T08:24:37.379Z,101723.45
2018-09-13T08:27:07.193Z,101727.44
2018-09-13T08:29:36.058Z,101732.03
2018-09-13T08:32:06.255Z,101729.89
2018-09-13T08:34:35.803Z,101733.98
2018-09-13T08:37:04.883Z,101734.02
2018-09-13T08:39:34.678Z,101737.51
2018-09-13T08:42:04.411Z,101741.87
2018-09-13T08:44:34.274Z,101737.51
2018-09-13T08:47:04.424Z,101722.64
2018-09-13T08:49:33.479Z,101719.05
2018-09-13T08:52:03.222Z,101716.52
2018-09-13T08:54:32.132Z,101720.52
2018-09-13T08:57:01.338Z,101727.69
2018-09-13T08:59:31.294Z,101737.51
2018-09-13T09:02:00.305Z,101731.38
2018-09-13T09:04:30.710Z,101736.25
2018-09-13T09:07:01.043Z,101722.34
2018-09-13T09:09:31.791Z,101714.73
2018-09-13T09:12:01.633Z,101717.91
2018-09-13T09:14:30.904Z,101723.95
2018-09-13T09:17:00.382Z,101722.59
2018-09-13T09:19:30.635Z,101728.50
2018-09-13T09:22:00.194Z,101727.89
2018-09-13T09:24:29.176Z,101720.27
2018-09-13T09:27:00.359Z,101729.36
2018-09-13T09:29:30.043Z,101741.33
2018-09-13T09:31:59.600Z,101743.02
2018-09-13T09:34:29.296Z,101733.48
2018-09-13T09:36:58.671Z,101733.00
2018-09-13T09:39:27.969Z,101732.03
2018-09-13T09:41:58.287Z,101719.75
2018-09-13T09:44:27.135Z,101712.39
2018-09-13T09:46:56.774Z,101716.34
2018-09-13T09:49:27.063Z,101725.37
2018-09-13T09:51:57.291Z,101726.44
2018-09-13T09:54:26.560Z,101725.63
2018-09-13T09:56:56.411Z,101725.73
2018-09-13T09:59:25.422Z,101727.44
2018-09-13T10:02:00.988Z,101725.80
2018-09-13T10:04:30.377Z,101714.61
2018-09-13T10:07:05.875Z,101715.34
2018-09-13T10:09:35.184Z,101714.64
2018-09-13T10:12:04.794Z,101715.64
2018-09-13T10:14:33.990Z,101712.20
2018-09-13T10:17:08.568Z,101711.47
2018-09-13T10:19:43.084Z,101707.22
2018-09-13T10:22:18.324Z,101697.27
2018-09-13T10:24:52.369Z,101689.00
2018-09-13T10:27:26.422Z,101683.28
2018-09-13T10:30:00.752Z,101687.91
2018-09-13T10:32:35.246Z,101691.88
2018-09-13T10:35:09.978Z,101699.66
2018-09-13T10:37:44.039Z,101690.31
2018-09-13T10:40:18.089Z,101691.88
2018-09-13T10:42:52.604Z,101688.37
2018-09-13T10:45:27.270Z,101685.56
2018-09-13T10:48:02.659Z,101686.91
2018-09-13T10:50:43.403Z,101685.28
2018-09-13T10:53:16.553Z,101681.34
2018-09-13T10:55:46.930Z,101686.34
2018-09-13T10:58:17.059Z,101684.81
2018-09-13T11:00:52.696Z,101679.80
2018-09-13T11:03:23.681Z,101679.45
2018-09-13T11:05:54.354Z,101681.34
2018-09-13T11:08:23.594Z,101677.92
2018-09-13T11:10:53.125Z,101675.42
2018-09-13T11:13:32.242Z,101675.55
2018-09-13T11:16:01.521Z,101671.43
2018-09-13T11:18:30.622Z,101669.25
2018-09-13T11:21:01.040Z,101660.64
2018-09-13T11:23:31.343Z,101668.42
2018-09-13T11:26:00.738Z,101657.37
2018-09-13T11:28:30.461Z,101655.82
2018-09-13T11:31:02.817Z,101658.33
2018-09-13T11:33:33.846Z,101657.48
2018-09-13T11:36:03.181Z,101665.38
2018-09-13T11:38:32.265Z,101664.95
2018-09-13T11:41:01.855Z,101672.72
2018-09-13T11:43:31.444Z,101682.30
2018-09-13T11:46:01.366Z,101675.23
2018-09-13T11:48:31.649Z,101675.15
2018-09-13T11:51:00.833Z,101672.05
2018-09-13T11:53:30.430Z,101674.55
2018-09-13T11:56:00.763Z,101671.01
2018-09-13T11:58:31.260Z,101674.47
2018-09-13T12:01:00.366Z,101674.88
2018-09-13T12:03:31.244Z,101668.56
2018-09-13T12:06:00.288Z,101666.06
2018-09-13T12:08:29.862Z,101665.14
2018-09-13T12:10:59.046Z,101662.12
2018-09-13T12:13:28.855Z,101665.14
2018-09-13T12:15:58.065Z,101659.30
2018-09-13T12:18:28.287Z,101663.36
2018-09-13T12:20:57.369Z,101655.45
2018-09-13T12:23:26.517Z,101653.19
2018-09-13T12:25:56.665Z,101656.09
2018-09-13T12:28:27.048Z,101654.81
2018-09-13T12:30:56.770Z,101659.94
2018-09-13T12:33:28.445Z,101658.27
2018-09-13T12:35:58.390Z,101655.77
2018-09-13T12:38:27.591Z,101658.16
2018-09-13T12:40:58.179Z,101649.41
2018-09-13T12:43:28.370Z,101634.47
2018-09-13T12:45:58.557Z,101641.34
2018-09-13T12:48:28.270Z,101641.97
2018-09-13T12:50:57.502Z,101635.09
2018-09-13T12:53:28.114Z,101635.61
2018-09-13T12:55:57.235Z,101626.80
2018-09-13T12:58:26.942Z,101623.16
2018-09-13T13:00:56.859Z,101621.59
2018-09-13T13:03:26.566Z,101618.03
2018-09-13T13:05:56.224Z,101609.38
2018-09-13T13:08:26.186Z,101607.02
2018-09-13T13:10:55.490Z,101608.05
2018-09-13T13:13:25.614Z,101603.68
2018-09-13T13:15:55.726Z,101592.66
2018-09-13T13:18:24.635Z,101601.20
2018-09-13T13:20:53.858Z,101594.55
2018-09-13T13:23:23.194Z,101591.98
2018-09-13T13:25:52.957Z,101591.78
2018-09-13T13:28:22.962Z,101594.75
2018-09-13T13:30:52.190Z,101591.85
2018-09-13T13:33:21.250Z,101588.31
2018-09-13T13:35:51.031Z,101594.04
2018-09-13T13:38:20.886Z,101587.92
2018-09-13T13:40:50.695Z,101581.97
2018-09-13T13:43:19.616Z,101584.79
2018-09-13T13:45:48.942Z,101579.71
2018-09-13T13:48:17.970Z,101580.86
2018-09-13T13:50:48.031Z,101583.02
2018-09-13T13:53:17.121Z,101579.28
2018-09-13T13:55:46.011Z,101576.58
2018-09-13T13:58:16.193Z,101578.86
2018-09-13T14:00:45.199Z,101575.73
2018-09-13T14:03:15.461Z,101575.14
2018-09-13T14:05:46.202Z,101568.91
2018-09-13T14:08:19.478Z,101572.65
2018-09-13T14:10:48.517Z,101577.94
2018-09-13T14:13:18.516Z,101572.22
2018-09-13T14:15:47.633Z,101582.95
2018-09-13T14:18:18.068Z,101578.38
2018-09-13T14:20:47.397Z,101576.37
2018-09-13T14:23:16.408Z,101578.38
2018-09-13T14:25:46.375Z,101566.42
2018-09-13T14:28:15.315Z,101566.10
2018-09-13T14:30:45.014Z,101566.73
2018-09-13T14:33:14.472Z,101562.87
2018-09-13T14:35:44.242Z,101561.72
2018-09-13T14:38:13.670Z,101564.42
2018-09-13T14:40:43.197Z,101567.33
2018-09-13T14:43:12.111Z,101569.00
2018-09-13T14:45:41.289Z,101566.30
2018-09-13T14:48:11.164Z,101568.69
2018-09-13T14:50:41.011Z,101568.48
2018-09-13T14:53:10.098Z,101564.75
2018-09-13T14:55:39.131Z,101564.64
2018-09-13T14:58:07.991Z,101559.23
2018-09-13T15:00:38.259Z,101548.55
2018-09-13T15:03:08.602Z,101546.76
2018-09-13T15:05:38.763Z,101550.30
2018-09-13T15:08:09.145Z,101549.38
2018-09-13T15:10:38.745Z,101553.95
2018-09-13T15:13:08.314Z,101544.50
2018-09-13T15:15:38.094Z,101548.23
2018-09-13T15:18:08.540Z,101544.19
2018-09-13T15:20:38.390Z,101547.72
2018-09-13T15:23:08.425Z,101547.17
2018-09-13T15:25:38.122Z,101550.62
2018-09-13T15:28:07.239Z,101544.08
2018-09-13T15:30:37.124Z,101540.94
2018-09-13T15:33:06.014Z,101545.30
2018-09-13T15:35:35.417Z,101550.89
2018-09-13T15:38:04.765Z,101545.69
2018-09-13T15:40:34.063Z,101549.18
2018-09-13T15:43:03.639Z,101547.94
2018-09-13T15:45:32.647Z,101543.13
2018-09-13T15:48:02.582Z,101542.47
2018-09-13T15:50:32.732Z,101543.61
2018-09-13T15:53:02.152Z,101546.78
2018-09-13T15:55:31.714Z,101547.95
2018-09-13T15:58:01.141Z,101549.95
2018-09-13T16:00:31.829Z,101551.14
2018-09-13T16:03:01.286Z,101546.55
2018-09-13T16:05:30.974Z,101549.66
2018-09-13T16:08:00.331Z,101555.34
2018-09-13T16:10:29.997Z,101552.23
2018-09-13T16:13:00.436Z,101556.81
2018-09-13T16:15:30.300Z,101554.30
2018-09-13T16:18:00.405Z,101549.53
2018-09-13T16:20:29.532Z,101551.42
2018-09-13T16:22:58.795Z,101543.63
2018-09-13T16:25:29.571Z,101546.55
2018-09-13T16:27:59.237Z,101545.43
2018-09-13T16:30:28.452Z,101536.45
2018-09-13T16:32:58.601Z,101545.50
2018-09-13T16:35:29.247Z,101543.31
2018-09-13T16:38:03.502Z,101546.63
2018-09-13T16:40:38.644Z,101543.22
2018-09-13T16:43:13.099Z,101544.17
2018-09-13T16:45:42.834Z,101547.91
2018-09-13T16:48:12.174Z,101542.61
2018-09-13T16:50:43.474Z,101543.76
2018-09-13T16:53:13.416Z,101544.17
2018-09-13T16:55:42.659Z,101539.17
2018-09-13T16:58:12.062Z,101539.81
2018-09-13T17:00:42.567Z,101536.48
2018-09-13T17:03:12.698Z,101537.50
2018-09-13T17:05:44.089Z,101549.64
2018-09-13T17:08:14.828Z,101549.13
2018-09-13T17:10:44.596Z,101544.89
2018-09-13T17:13:15.286Z,101547.58
2018-09-13T17:15:44.860Z,101551.11
2018-09-13T17:18:14.527Z,101549.25
2018-09-13T17:20:46.328Z,101552.81
2018-09-13T17:23:17.440Z,101551.23
2018-09-13T17:25:47.001Z,101552.97
2018-09-13T17:28:16.984Z,101545.72
2018-09-13T17:30:46.782Z,101551.11
2018-09-13T17:33:16.417Z,101545.59
2018-09-13T17:35:45.394Z,101549.31
2018-09-13T17:38:16.902Z,101549.92
2018-09-13T17:40:46.513Z,101550.95
2018-09-13T17:43:16.350Z,101550.31
2018-09-13T17:45:46.491Z,101554.86
2018-09-13T17:48:16.218Z,101551.56
2018-09-13T17:50:45.371Z,101543.48
2018-09-13T17:53:14.498Z,101546.17
2018-09-13T17:55:44.176Z,101547.20
2018-09-13T17:58:14.102Z,101547.20
2018-09-13T18:00:44.740Z,101549.44
2018-09-13T18:03:14.674Z,101553.30
2018-09-13T18:05:44.452Z,101549.89
2018-09-13T18:08:14.485Z,101554.96
2018-09-13T18:10:43.371Z,101557.14
2018-09-13T18:13:13.055Z,101560.99
2018-09-13T18:15:43.800Z,101563.37
2018-09-13T18:18:13.267Z,101566.06
2018-09-13T18:20:43.227Z,101569.50
2018-09-13T18:23:12.505Z,101570.42
2018-09-13T18:25:41.679Z,101571.83
2018-09-13T18:28:12.882Z,101579.73
2018-09-13T18:30:43.026Z,101569.78
2018-09-13T18:33:12.052Z,101565.19
2018-09-13T18:35:41.660Z,101577.38
2018-09-13T18:38:10.973Z,101580.45
2018-09-13T18:40:41.020Z,101582.13
2018-09-13T18:43:11.822Z,101575.67
2018-09-13T18:45:41.147Z,101580.45
2018-09-13T18:48:10.638Z,101572.05
2018-09-13T18:50:41.344Z,101564.76
2018-09-13T18:53:10.196Z,101569.73
2018-09-13T18:55:40.636Z,101569.41
2018-09-13T18:58:11.074Z,101570.15
2018-09-13T19:00:40.133Z,101574.89
2018-09-13T19:03:10.517Z,101576.94
2018-09-13T19:05:40.004Z,101575.59
2018-09-13T19:08:09.748Z,101571.12
2018-09-13T19:10:40.316Z,101577.81
2018-09-13T19:13:10.213Z,101576.94
2018-09-13T19:15:40.185Z,101574.70
2018-09-13T19:18:09.507Z,101573.73
2018-09-13T19:20:38.897Z,101577.86
2018-09-13T19:23:08.301Z,101575.86
2018-09-13T19:25:37.580Z,101580.23
2018-09-13T19:28:06.662Z,101577.86
2018-09-13T19:30:35.727Z,101584.18
2018-09-13T19:33:05.406Z,101590.54
2018-09-13T19:35:35.621Z,101582.14
2018-09-13T19:38:05.176Z,101575.78
2018-09-13T19:40:35.436Z,101581.25
2018-09-13T19:43:11.388Z,101582.27
2018-09-13T19:45:42.027Z,101587.01
2018-09-13T19:48:11.265Z,101590.40
2018-09-13T19:50:41.179Z,101592.07
2018-09-13T19:53:10.493Z,101590.03
2018-09-13T19:55:39.538Z,101589.19
2018-09-13T19:58:09.501Z,101591.19
2018-09-13T20:00:38.787Z,101587.80
2018-09-13T20:03:09.152Z,101584.59
2018-09-13T20:05:39.289Z,101577.53
2018-09-13T20:08:09.154Z,101573.49
2018-09-13T20:10:38.759Z,101576.10
2018-09-13T20:13:09.333Z,101580.23
2018-09-13T20:15:38.783Z,101577.02
2018-09-13T20:18:08.412Z,101568.11
2018-09-13T20:20:37.636Z,101571.64
2018-09-13T20:23:07.670Z,101575.17
2018-09-13T20:25:36.537Z,101573.09
2018-09-13T20:28:06.287Z,101572.58
2018-09-13T20:30:35.357Z,101575.78
2018-09-13T20:33:06.085Z,101574.76
2018-09-13T20:35:35.972Z,101575.59
2018-09-13T20:38:05.041Z,101577.96
2018-09-13T20:40:34.079Z,101585.16
2018-09-13T20:43:03.373Z,101579.45
2018-09-13T20:45:32.539Z,101580.79
2018-09-13T20:48:03.017Z,101587.20
2018-09-13T20:50:32.434Z,101586.17
2018-09-13T20:53:02.139Z,101580.79
2018-09-13T20:55:31.349Z,101578.02
2018-09-13T20:58:00.987Z,101584.12
2018-09-13T21:00:30.050Z,101581.63
2018-09-13T21:03:00.050Z,101581.16
2018-09-13T21:05:29.618Z,101582.19
2018-09-13T21:07:59.260Z,101586.55
2018-09-13T21:10:28.423Z,101585.94
2018-09-13T21:12:58.069Z,101583.75
2018-09-13T21:15:27.452Z,101589.66
2018-09-13T21:17:56.970Z,101593.09
2018-09-13T21:20:26.272Z,101592.47
2018-09-13T21:22:56.593Z,101592.80
2018-09-13T21:25:25.781Z,101591.45
2018-09-13T21:27:55.730Z,101592.91
2018-09-13T21:30:25.436Z,101583.94
2018-09-13T21:32:55.869Z,101590.67
2018-09-13T21:35:25.561Z,101588.30
2018-09-13T21:37:54.555Z,101590.48
2018-09-13T21:40:24.433Z,101592.85
2018-09-13T21:42:54.092Z,101596.37
2018-09-13T21:45:23.079Z,101598.75
2018-09-13T21:47:52.171Z,101600.80
2018-09-13T21:50:22.791Z,101596.33
2018-09-13T21:52:52.012Z,101596.84
2018-09-13T21:55:21.684Z,101605.94
2018-09-13T21:57:51.260Z,101604.45
2018-09-13T22:00:20.370Z,101602.59
2018-09-13T22:02:50.787Z,101609.00
2018-09-13T22:05:20.737Z,101606.50
2018-09-13T22:07:50.507Z,101612.09
2018-09-13T22:10:20.761Z,101603.37
2018-09-13T22:12:50.947Z,101612.09
2018-09-13T22:15:20.737Z,101613.55
2018-09-13T22:17:49.953Z,101613.22
2018-09-13T22:20:19.183Z,101612.09
2018-09-13T22:22:48.877Z,101612.09
2018-09-13T22:25:17.697Z,101609.91
2018-09-13T22:27:47.189Z,101617.85
2018-09-13T22:30:16.613Z,101613.48
2018-09-13T22:32:45.746Z,101614.51
2018-09-13T22:35:14.772Z,101610.88
2018-09-13T22:37:44.555Z,101612.55
2018-09-13T22:40:13.743Z,101615.86
2018-09-13T22:42:44.352Z,101617.93
2018-09-13T22:45:13.901Z,101618.22
2018-09-13T22:47:43.614Z,101614.00
2018-09-13T22:50:12.904Z,101619.20
2018-09-13T22:52:42.382Z,101615.81
2018-09-13T22:55:12.351Z,101615.16
2018-09-13T22:57:42.573Z,101617.02
2018-09-13T23:00:11.718Z,101620.30
2018-09-13T23:02:46.639Z,101617.14
2018-09-13T23:05:16.097Z,101623.11
2018-09-13T23:07:45.631Z,101619.30
2018-09-13T23:10:15.489Z,101620.46
2018-09-13T23:12:44.605Z,101616.70
2018-09-13T23:15:14.505Z,101615.28
2018-09-13T23:17:44.794Z,101615.94
2018-09-13T23:20:15.242Z,101620.91
2018-09-13T23:22:44.970Z,101615.34
2018-09-13T23:25:16.052Z,101620.03
2018-09-13T23:27:45.898Z,101618.18
2018-09-13T23:30:16.350Z,101615.16
2018-09-13T23:32:46.414Z,101614.14
2018-09-13T23:35:16.627Z,101612.80
2018-09-13T23:37:46.095Z,101619.71
2018-09-13T23:40:15.777Z,101617.02
2018-09-13T23:42:45.363Z,101618.50
2018-09-13T23:45:14.922Z,101616.64
2018-09-13T23:47:44.865Z,101618.28
2018-09-13T23:50:14.173Z,101611.05
2018-09-13T23:52:44.243Z,101605.66
2018-09-13T23:55:13.391Z,101616.24
2018-09-13T23:57:42.944Z,101609.70
